Time;durP1;ratioP1;P1;durP2;ratioP2;P2;SDS_P1;SDS_P2;PMS_P1;PMS_P2;Temp;Humidity;BMP_temperature;BMP_pressure;BME280_temperature;BME280_humidity;BME280_pressure;Samples;Min_cycle;Max_cycle;Signal;HPM_P1;HPM_P2
2022/11/08 00:01:59;;;;;;;9.35;2.13;;;;;;;11.56;100.00;100695.03;5089120;28;20032;-84
2022/11/08 00:04:25;;;;;;;9.85;3.10;;;;;;;11.53;100.00;100684.31;5093527;28;20027;-83
2022/11/08 00:15:05;;;;;;;7.05;2.15;;;;;;;11.62;100.00;100693.63;5098822;28;20395;-83
2022/11/08 00:17:35;;;;;;;12.75;1.88;;;;;;;11.66;100.00;100695.06;5081932;28;20032;-83
2022/11/08 00:20:00;;;;;;;10.30;2.63;;;;;;;11.57;100.00;100697.59;5084980;28;20565;-83
2022/11/08 00:22:30;;;;;;;9.23;1.95;;;;;;;11.60;100.00;100701.97;5102283;28;20040;-84
2022/11/08 00:24:55;;;;;;;11.35;2.53;;;;;;;11.59;100.00;100701.13;5086429;28;20046;-83
2022/11/08 00:27:23;;;;;;;10.73;2.97;;;;;;;11.52;100.00;100697.13;5098948;28;20455;-83
2022/11/08 00:29:49;;;;;;;11.73;2.17;;;;;;;11.57;100.00;100699.50;5086190;28;20024;-83
2022/11/08 00:32:17;;;;;;;29.23;3.80;;;;;;;11.58;100.00;100693.03;5102291;28;20027;-83
2022/11/08 00:34:43;;;;;;;12.45;2.22;;;;;;;11.57;100.00;100696.75;5072073;28;20134;-82
2022/11/08 00:37:09;;;;;;;9.07;2.17;;;;;;;11.53;100.00;100696.16;5089902;28;20463;-84
2022/11/08 00:39:34;;;;;;;12.73;2.38;;;;;;;11.43;100.00;100670.53;5090276;28;20031;-83
2022/11/08 00:42:03;;;;;;;8.93;2.17;;;;;;;11.55;100.00;100683.16;5090245;28;20028;-83
2022/11/08 00:44:29;;;;;;;10.63;2.58;;;;;;;11.53;100.00;100682.44;5107271;28;20031;-83
2022/11/08 00:46:54;;;;;;;8.75;2.13;;;;;;;11.51;100.00;100689.94;5071381;28;20386;-83
2022/11/08 00:49:20;;;;;;;11.93;2.25;;;;;;;11.47;100.00;100687.59;5088948;28;20035;-83
2022/11/08 00:51:46;;;;;;;8.13;2.20;;;;;;;11.36;100.00;100675.69;5124897;28;20511;-82
2022/11/08 00:54:14;;;;;;;12.00;2.30;;;;;;;11.38;100.00;100678.28;5055608;28;20119;-84
2022/11/08 00:56:40;;;;;;;13.65;2.15;;;;;;;11.37;100.00;100677.41;5123122;28;20039;-84
2022/11/08 00:59:08;;;;;;;10.13;2.33;;;;;;;11.45;100.00;100682.22;5089154;28;20115;-82
2022/11/08 01:01:34;;;;;;;11.18;2.42;;;;;;;11.44;100.00;100680.47;5088467;28;20039;-83
2022/11/08 01:03:59;;;;;;;9.40;2.40;;;;;;;11.47;100.00;100668.41;5072953;28;20127;-83
2022/11/08 01:06:25;;;;;;;12.77;2.17;;;;;;;11.43;100.00;100658.69;5069544;28;20039;-83
2022/11/08 01:08:54;;;;;;;8.30;2.22;;;;;;;11.50;100.00;100666.25;5068877;28;20068;-83
2022/11/08 01:11:22;;;;;;;5.63;2.25;;;;;;;11.46;100.00;100667.53;5097038;28;20471;-83
2022/11/08 01:13:49;;;;;;;9.48;2.53;;;;;;;11.47;100.00;100671.13;5087967;28;20038;-84
2022/11/08 01:16:36;;;;;;;7.22;2.03;;;;;;;11.44;100.00;100674.13;5102474;28;20054;-83
2022/11/08 01:19:02;;;;;;;5.25;1.40;;;;;;;11.44;100.00;100665.91;5072070;28;20044;-84
2022/11/08 01:21:28;;;;;;;7.22;1.83;;;;;;;11.52;100.00;100672.47;5071872;28;20038;-83
2022/11/08 01:23:54;;;;;;;7.43;2.10;;;;;;;11.44;100.00;100674.13;5104971;28;20027;-83
2022/11/08 01:26:24;;;;;;;13.85;2.63;;;;;;;11.44;100.00;100665.91;5122013;28;20493;-83
2022/11/08 01:28:50;;;;;;;8.55;1.80;;;;;;;11.42;100.00;100663.31;5122881;28;20494;-83
2022/11/08 01:31:22;;;;;;;12.00;1.98;;;;;;;11.42;100.00;100662.44;5106013;28;20451;-84
2022/11/08 01:33:47;;;;;;;10.55;1.92;;;;;;;11.40;100.00;100654.34;5121550;28;20414;-83
2022/11/08 01:36:15;;;;;;;10.52;1.70;;;;;;;11.35;100.00;100645.66;5087183;28;20046;-83
2022/11/08 01:38:41;;;;;;;11.60;2.25;;;;;;;11.36;100.00;100650.13;5064711;28;20367;-83
2022/11/08 01:41:10;;;;;;;12.10;2.25;;;;;;;11.40;100.00;100659.81;5070566;28;20028;-84
2022/11/08 01:43:39;;;;;;;9.10;1.83;;;;;;;11.37;100.00;100665.56;5086200;28;20398;-84
2022/11/08 01:46:28;;;;;;;10.48;1.75;;;;;;;11.39;100.00;100655.34;5085257;28;20027;-83
2022/11/08 01:49:07;;;;;;;15.43;2.17;;;;;;;11.26;100.00;100651.91;5084798;28;21415;-83
2022/11/08 01:51:58;;;;;;;5.90;1.63;;;;;;;11.30;100.00;100645.19;5103210;28;20043;-83
2022/11/08 01:54:30;;;;;;;6.57;1.70;;;;;;;11.30;100.00;100651.53;5115182;28;20038;-84
2022/11/08 01:56:57;;;;;;;11.67;2.00;;;;;;;11.25;100.00;100631.88;5103851;28;20031;-83
2022/11/08 01:59:23;;;;;;;7.18;1.67;;;;;;;11.25;100.00;100652.91;5082174;28;20040;-82
2022/11/08 02:01:49;;;;;;;8.30;2.00;;;;;;;11.34;100.00;100631.06;5066214;28;20035;-83
2022/11/08 02:04:15;;;;;;;7.95;2.22;;;;;;;11.30;100.00;100629.59;5085122;28;20044;-83
2022/11/08 02:06:43;;;;;;;10.68;1.75;;;;;;;11.33;100.00;100631.19;5066502;28;20071;-84
2022/11/08 02:09:12;;;;;;;6.78;1.85;;;;;;;11.38;100.00;100626.19;5097844;28;20036;-84
2022/11/08 02:11:39;;;;;;;12.25;2.30;;;;;;;11.41;100.00;100620.44;5085528;28;20115;-84
2022/11/08 02:14:05;;;;;;;9.75;1.80;;;;;;;11.34;100.00;100613.75;5069598;28;20035;-83
2022/11/08 02:16:30;;;;;;;8.10;1.90;;;;;;;11.37;100.00;100608.00;5083431;28;20036;-83
2022/11/08 02:18:56;;;;;;;9.88;1.75;;;;;;;11.42;100.00;100610.34;5086768;28;20058;-83
2022/11/08 02:21:27;;;;;;;11.05;1.80;;;;;;;11.46;100.00;100609.97;5106340;28;20028;-83
2022/11/08 02:24:01;;;;;;;10.57;1.98;;;;;;;11.47;100.00;100589.75;5094761;28;20036;-83
2022/11/08 02:26:30;;;;;;;7.53;1.33;;;;;;;11.57;100.00;100592.56;5089320;28;20419;-83
2022/11/08 02:28:56;;;;;;;7.97;2.13;;;;;;;11.53;100.00;100581.00;5120943;28;20027;-83
2022/11/08 02:31:21;;;;;;;8.93;1.63;;;;;;;11.42;100.00;100566.50;5072733;28;20119;-83
2022/11/08 02:33:48;;;;;;;10.60;2.67;;;;;;;11.45;100.00;100583.53;5091322;28;20048;-82
2022/11/08 02:36:16;;;;;;;20.33;2.05;;;;;;;11.35;100.00;100579.88;5083608;28;20043;-84
2022/11/08 02:38:45;;;;;;;7.85;1.95;;;;;;;11.22;100.00;100574.56;5084666;28;20569;-84
2022/11/08 02:41:11;;;;;;;14.02;2.97;;;;;;;11.18;100.00;100573.09;5102416;28;20068;-84
2022/11/08 02:43:36;;;;;;;12.57;2.22;;;;;;;11.18;100.00;100571.25;5104364;28;20036;-83
2022/11/08 02:46:02;;;;;;;9.80;1.95;;;;;;;11.15;100.00;100571.50;5057781;28;20028;-84
2022/11/08 02:48:27;;;;;;;8.00;1.67;;;;;;;11.02;100.00;100568.94;5082337;28;20040;-84
2022/11/08 02:50:53;;;;;;;11.57;1.98;;;;;;;11.00;100.00;100570.06;5102569;28;20107;-84
2022/11/08 02:53:18;;;;;;;9.75;2.00;;;;;;;10.94;100.00;100556.91;5092210;28;20583;-84
2022/11/08 02:55:44;;;;;;;11.43;1.90;;;;;;;10.98;100.00;100555.63;5125359;28;20031;-83
2022/11/08 02:58:10;;;;;;;5.45;1.70;;;;;;;11.01;100.00;100558.09;5107903;28;20155;-83
2022/11/08 03:00:36;;;;;;;9.02;1.40;;;;;;;11.09;100.00;100554.72;5107595;28;20035;-81
2022/11/08 03:03:02;;;;;;;7.38;2.00;;;;;;;10.98;100.00;100544.66;5107984;28;20039;-83
2022/11/08 03:05:28;;;;;;;6.18;1.30;;;;;;;10.91;100.00;100538.00;5107994;28;20028;-82
2022/11/08 03:07:54;;;;;;;8.48;1.85;;;;;;;10.92;100.00;100529.66;5071146;28;20092;-83
2022/11/08 03:10:21;;;;;;;5.85;1.30;;;;;;;10.90;100.00;100508.84;5074137;28;20030;-83
2022/11/08 03:12:46;;;;;;;6.93;1.42;;;;;;;10.83;100.00;100494.81;5085077;28;20028;-83
2022/11/08 03:15:13;;;;;;;4.50;1.17;;;;;;;10.90;100.00;100503.38;5091277;28;20038;-82
2022/11/08 03:17:39;;;;;;;6.57;1.05;;;;;;;10.98;100.00;100515.41;5072996;28;20036;-85
2022/11/08 03:20:05;;;;;;;10.60;1.42;;;;;;;10.94;100.00;100502.13;5108228;28;20019;-83
2022/11/08 03:22:34;;;;;;;7.30;1.10;;;;;;;10.97;100.00;100501.84;5089924;28;20157;-83
2022/11/08 03:24:59;;;;;;;5.65;0.95;;;;;;;10.96;100.00;100483.69;5108910;28;20027;-84
2022/11/08 03:27:24;;;;;;;8.20;1.02;;;;;;;10.99;100.00;100502.59;5073015;28;20035;-82
2022/11/08 03:29:50;;;;;;;4.32;1.10;;;;;;;10.99;100.00;100489.75;5069787;28;20042;-83
2022/11/08 03:32:17;;;;;;;6.13;1.35;;;;;;;10.89;100.00;100493.41;5074099;28;20032;-82
2022/11/08 03:34:42;;;;;;;3.75;1.00;;;;;;;10.75;100.00;100459.88;5071014;28;20056;-83
2022/11/08 03:37:09;;;;;;;7.75;1.70;;;;;;;10.92;100.00;100482.19;5105078;28;20046;-82
2022/11/08 03:39:35;;;;;;;9.02;2.13;;;;;;;10.91;100.00;100475.00;5087200;28;20032;-82
2022/11/08 03:42:03;;;;;;;11.93;2.38;;;;;;;10.88;100.00;100467.03;5072116;28;20441;-83
2022/11/08 03:44:29;;;;;;;6.05;1.65;;;;;;;10.91;100.00;100466.78;5072430;28;20032;-83
2022/11/08 03:46:54;;;;;;;9.60;1.60;;;;;;;10.85;100.00;100481.84;5075754;28;20471;-83
2022/11/08 03:49:20;;;;;;;10.10;1.73;;;;;;;10.88;100.00;100476.13;5055079;28;20031;-83
2022/11/08 03:51:48;;;;;;;5.80;1.48;;;;;;;10.81;100.00;100458.50;5090144;28;20035;-84
2022/11/08 03:54:14;;;;;;;9.68;1.90;;;;;;;10.94;100.00;100466.53;5090245;28;20041;-83
2022/11/08 03:56:40;;;;;;;6.63;2.28;;;;;;;10.91;100.00;100466.78;5073910;28;20032;-82
2022/11/08 03:59:06;;;;;;;6.75;2.20;;;;;;;10.79;100.00;100435.81;5090414;28;20092;-84
2022/11/08 04:01:32;;;;;;;9.35;1.80;;;;;;;10.84;100.00;100450.88;5085804;28;20044;-84
2022/11/08 04:03:57;;;;;;;6.32;1.90;;;;;;;10.76;100.00;100447.06;5107010;28;20032;-83
2022/11/08 04:06:23;;;;;;;6.22;1.90;;;;;;;10.79;100.00;100447.66;5106164;28;20062;-84
2022/11/08 04:08:48;;;;;;;5.30;2.00;;;;;;;10.78;100.00;100440.44;5062998;28;20111;-84
2022/11/08 04:16:42;;;;;;;8.50;1.98;;;;;;;10.85;100.00;100429.81;5091502;28;20038;-83
2022/11/08 04:21:53;;;;;;;5.70;1.85;;;;;;;10.88;100.00;100421.34;5090501;28;20051;-83
2022/11/08 04:24:20;;;;;;;9.05;1.80;;;;;;;10.75;100.00;100410.59;5107871;28;20042;-83
2022/11/08 04:26:45;;;;;;;9.80;1.52;;;;;;;10.63;100.00;100411.66;5088522;28;20059;-83
2022/11/08 04:29:12;;;;;;;9.60;1.83;;;;;;;10.71;100.00;100409.13;5077962;28;20031;-83
2022/11/08 04:31:38;;;;;;;8.63;1.52;;;;;;;10.75;100.00;100418.81;5078565;28;20032;-83
2022/11/08 04:34:04;;;;;;;8.65;1.60;;;;;;;10.75;100.00;100405.09;5082302;28;20052;-83
2022/11/08 04:36:30;;;;;;;3.47;1.60;;;;;;;10.69;100.00;100407.50;5100603;28;20141;-83
2022/11/08 04:38:56;;;;;;;7.05;1.20;;;;;;;10.65;100.00;100399.56;5067682;28;20036;-83
2022/11/08 04:41:23;;;;;;;4.40;1.17;;;;;;;10.69;100.00;100397.44;5053631;28;20032;-82
2022/11/08 04:43:51;;;;;;;3.08;1.15;;;;;;;10.70;100.00;100384.63;5085801;28;20114;-81
2022/11/08 04:46:20;;;;;;;11.85;1.58;;;;;;;10.76;100.00;100393.16;5102142;28;20094;-82
2022/11/08 04:48:48;;;;;;;4.97;1.33;;;;;;;10.74;100.00;100377.84;5085826;28;20065;-82
2022/11/08 04:51:20;;;;;;;2.78;1.00;;;;;;;10.77;100.00;100369.38;5097054;28;20031;-83
2022/11/08 04:53:46;;;;;;;4.67;1.67;;;;;;;10.83;100.00;100374.31;5104091;28;20037;-82
2022/11/08 04:56:14;;;;;;;6.05;1.45;;;;;;;10.75;100.00;100364.03;5069372;28;20285;-83
2022/11/08 04:58:46;;;;;;;6.00;1.38;;;;;;;10.76;100.00;100367.66;5104456;28;20035;-83
2022/11/08 05:01:14;;;;;;;9.15;1.30;;;;;;;10.80;100.00;100364.50;5081919;28;20024;-82
2022/11/08 05:03:40;;;;;;;9.13;1.70;;;;;;;10.77;100.00;100355.69;5104199;28;20031;-83
2022/11/08 05:06:10;;;;;;;3.60;1.52;;;;;;;10.90;100.00;100360.94;5090495;28;20027;-83
2022/11/08 05:08:36;;;;;;;8.98;1.55;;;;;;;10.92;100.00;100364.41;5102739;28;20047;-82
2022/11/08 05:11:08;;;;;;;5.57;1.77;;;;;;;10.85;100.00;100359.50;5119975;28;20032;-83
2022/11/08 05:13:34;;;;;;;6.97;1.80;;;;;;;10.83;100.00;100349.66;5104646;28;20046;-84
2022/11/08 05:16:02;;;;;;;7.43;1.73;;;;;;;10.91;100.00;100351.75;5093655;28;20402;-82
2022/11/08 05:18:29;;;;;;;2.92;1.50;;;;;;;10.88;100.00;100343.78;5082411;28;20028;-81
2022/11/08 05:23:40;;;;;;;5.90;1.85;;;;;;;10.91;100.00;100311.50;5091992;28;20040;-83
2022/11/08 05:26:06;;;;;;;3.50;1.63;;;;;;;10.90;100.00;100330.81;5084629;28;20044;-82
2022/11/08 05:28:32;;;;;;;4.35;2.35;;;;;;;10.97;100.00;100321.94;5109720;28;20051;-81
2022/11/08 05:30:58;;;;;;;2.47;1.70;;;;;;;11.09;100.00;100322.69;5103055;28;20031;-80
2022/11/08 05:33:24;;;;;;;4.80;1.73;;;;;;;10.95;100.00;100323.06;5102713;28;20112;-82
2022/11/08 05:35:49;;;;;;;7.72;1.83;;;;;;;10.89;100.00;100308.06;5070679;28;20031;-81
2022/11/08 05:38:15;;;;;;;9.82;2.05;;;;;;;10.98;100.00;100304.47;5099951;28;20042;-83
2022/11/08 05:40:41;;;;;;;5.20;1.80;;;;;;;11.03;100.00;100307.69;5087309;28;20083;-82
2022/11/08 05:43:09;;;;;;;3.95;1.67;;;;;;;11.03;100.00;100312.28;5084272;28;20452;-83
2022/11/08 05:45:35;;;;;;;9.05;1.95;;;;;;;11.01;100.00;100306.06;5072810;28;20042;-83
2022/11/08 05:48:04;;;;;;;7.40;2.10;;;;;;;10.93;100.00;100306.75;5085209;28;20043;-83
2022/11/08 05:50:34;;;;;;;7.00;1.63;;;;;;;10.96;100.00;100306.47;5087801;28;20566;-82
2022/11/08 05:52:59;;;;;;;6.63;1.80;;;;;;;10.89;100.00;100308.06;5090819;28;20099;-82
2022/11/08 05:55:25;;;;;;;5.50;1.95;;;;;;;10.96;100.00;100311.97;5116800;28;20055;-80
2022/11/08 05:57:51;;;;;;;6.70;1.50;;;;;;;10.96;100.00;100302.88;5099732;28;20047;-79
2022/11/08 06:00:20;;;;;;;5.10;1.50;;;;;;;10.99;100.00;100311.69;5084325;28;20039;-80
2022/11/08 06:02:45;;;;;;;6.72;1.70;;;;;;;10.92;100.00;100315.09;5069124;28;20035;-80
2022/11/08 06:05:11;;;;;;;3.38;1.55;;;;;;;10.96;100.00;100313.84;5104859;28;20038;-81
2022/11/08 06:07:37;;;;;;;4.15;1.42;;;;;;;11.02;100.00;100308.69;5088283;28;20032;-80
2022/11/08 06:10:03;;;;;;;3.45;1.55;;;;;;;11.00;100.00;100313.44;5104111;28;20083;-80
2022/11/08 06:12:29;;;;;;;4.20;1.63;;;;;;;10.89;100.00;100304.44;5095324;28;20415;-80
2022/11/08 06:14:55;;;;;;;1.50;1.30;;;;;;;10.91;100.00;100308.78;5085875;28;20061;-81
2022/11/08 06:17:20;;;;;;;4.05;1.23;;;;;;;10.87;100.00;100300.97;5103280;28;20044;-80
2022/11/08 06:19:45;;;;;;;7.75;1.52;;;;;;;10.89;100.00;100304.44;5085844;28;20036;-81
2022/11/08 06:22:11;;;;;;;3.72;1.40;;;;;;;11.02;100.00;100307.81;5084911;28;20068;-81
2022/11/08 06:24:36;;;;;;;3.95;1.33;;;;;;;10.96;100.00;100305.63;5105330;28;20054;-81
2022/11/08 06:27:02;;;;;;;4.30;1.60;;;;;;;10.90;100.00;100303.44;5069244;28;20041;-80
2022/11/08 06:29:28;;;;;;;2.90;1.35;;;;;;;10.89;100.00;100305.31;5111242;28;20039;-81
2022/11/08 06:31:53;;;;;;;5.50;1.63;;;;;;;11.12;100.00;100305.97;5118679;28;20044;-81
2022/11/08 06:34:22;;;;;;;6.20;1.73;;;;;;;10.95;100.00;100310.25;5105766;28;20048;-81
2022/11/08 06:36:47;;;;;;;8.70;1.85;;;;;;;10.87;100.00;100311.91;5105367;28;20052;-81
2022/11/08 06:39:13;;;;;;;3.47;1.50;;;;;;;10.88;100.00;100314.53;5087645;28;20040;-81
2022/11/08 06:41:38;;;;;;;4.95;1.70;;;;;;;10.60;100.00;100286.00;5095924;28;20088;-81
2022/11/08 06:44:03;;;;;;;4.32;1.65;;;;;;;10.83;100.00;100308.59;5104049;28;20043;-80
2022/11/08 06:46:29;;;;;;;4.55;1.95;;;;;;;10.79;100.00;100313.47;5061280;28;20032;-81
2022/11/08 06:48:54;;;;;;;5.05;1.90;;;;;;;10.83;100.00;100311.34;5069929;28;20028;-84
2022/11/08 06:51:20;;;;;;;7.53;2.22;;;;;;;10.77;100.00;100315.50;5072552;28;20023;-81
2022/11/08 06:53:46;;;;;;;6.40;1.77;;;;;;;10.79;100.00;100309.84;5079407;28;20107;-80
2022/11/08 06:56:12;;;;;;;6.03;2.17;;;;;;;10.85;100.00;100310.22;5087362;28;20054;-80
2022/11/08 06:58:38;;;;;;;4.70;2.05;;;;;;;10.85;100.00;100314.78;5087707;28;20038;-81
2022/11/08 07:01:05;;;;;;;4.72;2.22;;;;;;;10.92;100.00;100310.53;5105789;28;20052;-80
2022/11/08 07:03:31;;;;;;;4.70;2.20;;;;;;;10.91;100.00;100307.91;5086812;28;20088;-81
2022/11/08 07:06:00;;;;;;;5.93;2.05;;;;;;;10.82;100.00;100293.16;5118655;28;20036;-81
2022/11/08 07:08:26;;;;;;;5.22;2.00;;;;;;;10.85;100.00;100307.47;5089950;28;20044;-80
2022/11/08 07:10:51;;;;;;;6.00;1.77;;;;;;;10.90;100.00;100297.97;5072223;28;20031;-81
2022/11/08 07:13:17;;;;;;;9.55;2.10;;;;;;;10.91;100.00;100307.91;5107361;28;20036;-81
2022/11/08 07:15:44;;;;;;;5.85;2.00;;;;;;;10.97;100.00;100310.09;5085868;28;20103;-81
2022/11/08 07:18:12;;;;;;;5.82;1.88;;;;;;;10.97;100.00;100315.56;5101804;28;20023;-82
2022/11/08 07:20:39;;;;;;;5.38;1.98;;;;;;;10.95;100.00;100323.94;5105483;28;20122;-81
2022/11/08 07:23:05;;;;;;;4.93;1.95;;;;;;;11.00;100.00;100310.69;5085477;28;20044;-81
2022/11/08 07:25:31;;;;;;;5.30;2.00;;;;;;;10.89;100.00;100315.38;5083259;28;20032;-80
2022/11/08 07:28:00;;;;;;;4.88;2.10;;;;;;;11.01;100.00;100323.38;5085676;28;20048;-80
2022/11/08 07:30:26;;;;;;;4.18;1.75;;;;;;;11.15;100.00;100313.94;5097456;28;20459;-81
2022/11/08 07:32:53;;;;;;;6.43;2.17;;;;;;;11.07;100.00;100311.00;5084063;28;20126;-80
2022/11/08 07:35:18;;;;;;;6.25;2.38;;;;;;;11.27;100.00;100313.81;5081553;28;20048;-83
2022/11/08 07:37:47;;;;;;;7.25;2.03;;;;;;;11.15;100.00;100318.50;5076165;28;20040;-82
2022/11/08 07:40:13;;;;;;;8.95;2.10;;;;;;;11.25;100.00;100330.41;5082293;28;20556;-82
2022/11/08 07:42:39;;;;;;;4.45;1.90;;;;;;;11.37;100.00;100323.78;5081640;28;20102;-79
2022/11/08 07:45:06;;;;;;;3.38;1.73;;;;;;;11.41;100.00;100329.84;5082099;28;20067;-81
2022/11/08 07:47:32;;;;;;;8.68;2.30;;;;;;;11.42;100.00;100325.25;5102285;28;20109;-81
2022/11/08 07:49:57;;;;;;;6.82;2.35;;;;;;;11.46;100.00;100333.06;5099640;28;20031;-81
2022/11/08 07:52:23;;;;;;;7.07;1.83;;;;;;;11.51;100.00;100336.25;5098100;28;20039;-79
2022/11/08 07:54:48;;;;;;;5.25;1.90;;;;;;;11.57;100.00;100341.16;5100969;28;20034;-81
2022/11/08 07:57:15;;;;;;;6.35;2.08;;;;;;;11.45;100.00;100336.81;5080991;28;20085;-81
2022/11/08 07:59:41;;;;;;;5.13;1.60;;;;;;;11.34;100.00;100315.84;5099986;28;20032;-81
2022/11/08 08:02:09;;;;;;;5.70;2.10;;;;;;;11.56;100.00;100328.47;5080985;28;20040;-81
2022/11/08 08:04:37;;;;;;;3.65;2.20;;;;;;;11.62;100.00;100329.75;5082841;28;20036;-81
2022/11/08 08:07:03;;;;;;;3.85;1.90;;;;;;;11.63;100.00;100323.28;5101684;28;20042;-82
2022/11/08 08:09:29;;;;;;;5.88;1.90;;;;;;;11.57;100.00;100319.22;5100169;28;20052;-82
2022/11/08 08:11:55;;;;;;;3.90;2.00;;;;;;;11.65;100.00;100318.50;5099904;28;20036;-82
2022/11/08 08:14:20;;;;;;;4.05;1.77;;;;;;;11.63;100.00;100327.91;5063326;28;20047;-80
2022/11/08 08:16:46;;;;;;;5.97;2.20;;;;;;;11.67;100.00;100319.22;5106829;28;20044;-79
2022/11/08 08:19:12;;;;;;;10.85;1.80;;;;;;;11.69;100.00;100310.88;5082718;28;20028;-82
2022/11/08 08:21:37;;;;;;;3.75;1.90;;;;;;;11.72;100.00;100313.31;5103950;28;20040;-80
2022/11/08 08:24:03;;;;;;;4.68;2.20;;;;;;;11.70;100.00;100304.38;5080181;28;20051;-82
2022/11/08 08:26:28;;;;;;;4.57;1.30;;;;;;;11.80;100.00;100307.13;5093639;28;20396;-81
2022/11/08 08:28:54;;;;;;;4.25;1.95;;;;;;;11.91;100.00;100324.34;5076634;28;20060;-82
2022/11/08 08:31:19;;;;;;;6.82;1.52;;;;;;;11.91;100.00;100327.09;5097106;28;20035;-82
2022/11/08 08:33:45;;;;;;;5.10;1.45;;;;;;;12.01;100.00;100324.34;5065925;28;20064;-82
2022/11/08 08:36:10;;;;;;;2.97;1.35;;;;;;;12.00;100.00;100317.13;5060736;28;20036;-82
2022/11/08 08:38:36;;;;;;;7.00;1.50;;;;;;;12.04;100.00;100328.69;5111539;28;20028;-81
2022/11/08 08:41:02;;;;;;;2.88;1.27;;;;;;;12.02;100.00;100337.06;5070280;28;20047;-81
2022/11/08 08:43:31;;;;;;;2.72;1.40;;;;;;;12.03;100.00;100324.22;5102706;28;20448;-82
2022/11/08 08:46:04;;;;;;;2.65;1.30;;;;;;;12.10;100.00;100329.00;5114499;28;20091;-81
2022/11/08 08:48:34;;;;;;;5.82;1.33;;;;;;;12.20;100.00;100334.47;5103671;28;20039;-81
2022/11/08 08:51:00;;;;;;;8.90;1.58;;;;;;;12.27;100.00;100341.09;5081770;28;20032;-83
2022/11/08 08:53:25;;;;;;;4.32;1.23;;;;;;;12.24;100.00;100341.41;5084109;28;20057;-83
2022/11/08 08:55:51;;;;;;;4.75;1.70;;;;;;;12.39;100.00;100339.06;5075201;28;20032;-82
2022/11/08 08:58:18;;;;;;;4.72;1.30;;;;;;;12.55;100.00;100337.63;5054581;28;20039;-81
2022/11/08 09:00:44;;;;;;;1.52;1.17;;;;;;;12.52;100.00;100327.78;5114439;28;20388;-82
2022/11/08 09:03:10;;;;;;;3.45;1.45;;;;;;;12.59;100.00;100326.19;5104352;28;20047;-82
2022/11/08 09:05:40;;;;;;;7.13;1.98;;;;;;;12.66;100.00;100327.31;5104976;28;20028;-83
2022/11/08 09:08:06;;;;;;;6.28;1.55;;;;;;;12.50;100.00;100325.19;5104612;28;20049;-83
2022/11/08 09:10:31;;;;;;;4.28;1.42;;;;;;;12.49;100.00;100300.63;5062107;28;20468;-83
2022/11/08 09:12:57;;;;;;;4.68;1.10;;;;;;;12.74;100.00;100318.34;5101999;28;20062;-83
2022/11/08 09:15:22;;;;;;;3.72;1.20;;;;;;;12.73;100.00;100326.75;5069871;28;20027;-82
2022/11/08 09:17:48;;;;;;;3.75;1.40;;;;;;;12.80;100.00;100322.38;5085941;28;20023;-82
2022/11/08 09:20:13;;;;;;;5.43;1.20;;;;;;;12.79;100.00;100313.28;5070362;28;20461;-83
2022/11/08 09:22:39;;;;;;;4.25;1.33;;;;;;;12.75;100.00;100308.22;5104040;28;20036;-81
2022/11/08 09:25:05;;;;;;;4.90;1.23;;;;;;;12.97;100.00;100307.84;5049899;28;20047;-83
2022/11/08 09:27:31;;;;;;;4.03;1.10;;;;;;;13.27;100.00;100310.47;5082246;28;20043;-82
2022/11/08 09:29:57;;;;;;;3.55;1.30;;;;;;;13.45;100.00;100316.91;5081273;28;20035;-83
2022/11/08 09:32:27;;;;;;;2.03;1.10;;;;;;;13.41;100.00;100318.22;5118713;28;20205;-83
2022/11/08 09:34:54;;;;;;;1.83;1.10;;;;;;;13.46;100.00;100323.28;5072977;28;20106;-83
2022/11/08 09:37:20;;;;;;;8.05;1.55;;;;;;;13.47;100.00;100331.38;5088575;28;20036;-84
2022/11/08 09:39:45;;;;;;;4.70;1.30;;;;;;;13.70;100.00;100329.06;5053302;28;20028;-82
2022/11/08 09:42:17;;;;;;;3.50;1.35;;;;;;;13.84;100.00;100310.28;5102518;28;20038;-82
2022/11/08 09:44:57;;;;;;;5.95;1.30;;;;;;;14.00;100.00;100306.81;5103565;28;20035;-82
2022/11/08 09:47:32;;;;;;;3.50;1.15;;;;;;;13.98;100.00;100309.72;5103197;28;20042;-83
2022/11/08 09:50:38;;;;;;;4.75;1.23;;;;;;;14.01;100.00;100303.91;5103741;28;20024;-83
2022/11/08 09:53:34;;;;;;;2.70;1.00;;;;;;;13.76;100.00;100295.41;5076400;28;20096;-83
2022/11/08 09:56:30;;;;;;;3.55;1.35;;;;;;;13.92;100.00;100291.09;5082873;28;20031;-81
2022/11/08 09:59:17;;;;;;;5.65;1.52;;;;;;;13.98;100.00;100299.56;5100134;28;20055;-82
2022/11/08 10:01:43;;;;;;;6.93;1.35;;;;;;;13.95;100.00;100288.91;5075276;28;20044;-83
2022/11/08 10:04:16;;;;;;;2.50;1.00;;;;;;;14.03;100.00;100287.25;5093736;28;20043;-82
2022/11/08 10:07:04;;;;;;;5.90;1.40;;;;;;;13.97;100.00;100297.88;5083546;28;20024;-83
2022/11/08 10:09:54;;;;;;;9.73;1.60;;;;;;;13.89;100.00;100299.69;5101209;28;20341;-83
2022/11/08 10:12:37;;;;;;;8.20;1.50;;;;;;;14.03;100.00;100298.25;5072440;28;20496;-83
2022/11/08 10:15:31;;;;;;;5.78;1.48;;;;;;;14.11;100.00;100304.69;5100454;28;20024;-83
2022/11/08 10:18:09;;;;;;;3.40;1.10;;;;;;;14.12;100.00;100308.34;5085357;28;20059;-83
2022/11/08 10:20:46;;;;;;;11.85;1.45;;;;;;;14.26;100.00;100313.25;5100677;28;20024;-85
2022/11/08 10:23:22;;;;;;;3.45;1.23;;;;;;;14.33;100.00;100328.13;5104549;28;20034;-83
2022/11/08 10:25:57;;;;;;;7.07;1.38;;;;;;;14.47;100.00;100325.84;5122041;28;20070;-81
2022/11/08 10:28:43;;;;;;;5.93;1.65;;;;;;;14.39;100.00;100323.88;5103555;28;20027;-82
2022/11/08 10:31:12;;;;;;;4.70;1.50;;;;;;;14.43;100.00;100318.91;5122127;28;20043;-83
2022/11/08 10:33:46;;;;;;;4.47;1.30;;;;;;;14.49;100.00;100321.91;5085702;28;20032;-83
2022/11/08 10:36:29;;;;;;;2.88;1.13;;;;;;;14.49;100.00;100327.41;5100538;28;20039;-83
2022/11/08 10:39:02;;;;;;;4.57;1.48;;;;;;;14.63;100.00;100333.41;5102051;28;20060;-83
2022/11/08 10:41:42;;;;;;;4.55;1.40;;;;;;;14.55;100.00;100323.13;5125531;28;20083;-83
2022/11/08 10:44:14;;;;;;;5.13;1.52;;;;;;;14.63;100.00;100317.72;5106491;28;20023;-82
2022/11/08 10:46:46;;;;;;;6.05;1.40;;;;;;;14.87;100.00;100305.13;5107491;28;20031;-83
2022/11/08 10:49:25;;;;;;;4.65;1.20;;;;;;;14.75;100.00;100318.31;5123097;28;20038;-84
2022/11/08 10:51:53;;;;;;;3.53;1.10;;;;;;;14.61;100.00;100319.78;5107206;28;20471;-82
2022/11/08 10:54:51;;;;;;;4.03;1.58;;;;;;;14.65;100.00;100321.16;5084826;28;20055;-83
2022/11/08 10:57:24;;;;;;;8.00;1.20;;;;;;;14.71;100.00;100330.69;5116051;28;20028;-83
2022/11/08 10:59:51;;;;;;;6.40;1.52;;;;;;;14.75;100.00;100329.34;5106230;28;20028;-82
2022/11/08 11:02:23;;;;;;;7.88;1.67;;;;;;;14.72;100.00;100326.03;5104976;28;20041;-84
2022/11/08 11:04:50;;;;;;;6.45;1.60;;;;;;;14.74;100.00;100324.88;5105466;28;20038;-83
2022/11/08 11:07:34;;;;;;;5.57;2.13;;;;;;;14.70;100.00;100334.47;5100048;28;20520;-83
2022/11/08 11:10:22;;;;;;;8.68;2.38;;;;;;;14.76;100.00;100328.31;5103295;28;20055;-83
2022/11/08 11:13:17;;;;;;;3.75;1.30;;;;;;;14.70;100.00;100331.72;5091851;28;20076;-82
2022/11/08 11:15:49;;;;;;;3.28;1.52;;;;;;;14.69;100.00;100328.09;5063158;28;20044;-83
2022/11/08 11:18:46;;;;;;;5.13;1.58;;;;;;;14.66;100.00;100331.19;5125338;28;20024;-82
2022/11/08 11:21:18;;;;;;;4.72;1.60;;;;;;;14.70;100.00;100332.56;5106582;28;20067;-82
2022/11/08 11:23:51;;;;;;;5.95;1.45;;;;;;;14.91;100.00;100327.72;5090408;28;20039;-83
2022/11/08 11:26:28;;;;;;;4.43;1.70;;;;;;;14.87;100.00;100317.03;5086496;28;20051;-83
2022/11/08 11:29:03;;;;;;;3.63;1.20;;;;;;;14.93;100.00;100329.28;5087095;28;20054;-83
2022/11/08 11:31:31;;;;;;;6.00;1.67;;;;;;;14.93;100.00;100317.41;5086707;28;20031;-83
2022/11/08 11:33:58;;;;;;;4.30;1.20;;;;;;;14.93;100.00;100311.88;5068501;28;20048;-83
2022/11/08 11:36:28;;;;;;;3.13;1.20;;;;;;;14.85;100.00;100287.88;5073386;28;20403;-83
2022/11/08 11:39:06;;;;;;;2.10;1.20;;;;;;;15.07;100.00;100308.53;5101958;28;20032;-82
2022/11/08 11:42:02;;;;;;;5.10;1.75;;;;;;;15.02;100.00;100273.16;5104933;28;20509;-82
2022/11/08 11:44:56;;;;;;;5.00;1.60;;;;;;;15.20;100.00;100284.09;5082049;28;20115;-82